createdAt,value
2022-08-14T00:01:50.175Z,3.80
2022-08-14T00:04:34.817Z,4.03
2022-08-14T00:07:14.061Z,3.80
2022-08-14T00:10:02.024Z,3.88
2022-08-14T00:12:33.762Z,3.70
2022-08-14T00:15:17.727Z,3.53
2022-08-14T00:17:47.520Z,4.10
2022-08-14T00:20:30.298Z,3.90
2022-08-14T00:23:12.182Z,3.80
2022-08-14T00:25:42.932Z,4.18
2022-08-14T00:28:15.594Z,3.78
2022-08-14T00:30:47.346Z,3.33
2022-08-14T00:33:16.118Z,3.40
2022-08-14T00:36:36.496Z,3.50
2022-08-14T00:38:32.231Z,3.60
2022-08-14T00:41:07.193Z,3.78
2022-08-14T00:43:38.410Z,4.05
2022-08-14T00:46:32.226Z,4.20
2022-08-14T00:48:59.326Z,4.03
2022-08-14T00:51:37.607Z,3.58
2022-08-14T00:54:11.065Z,4.18
2022-08-14T00:57:04.854Z,3.83
2022-08-14T00:59:32.006Z,4.18
2022-08-14T01:02:01.169Z,3.97
2022-08-14T01:04:51.792Z,3.50
2022-08-14T01:07:21.633Z,3.80
2022-08-14T01:09:52.014Z,3.63
2022-08-14T01:12:27.019Z,3.85
2022-08-14T01:15:02.874Z,3.70
2022-08-14T01:17:52.304Z,3.92
2022-08-14T01:20:40.735Z,3.45
2022-08-14T01:23:16.731Z,3.50
2022-08-14T01:25:48.171Z,3.72
2022-08-14T01:28:46.314Z,3.40
2022-08-14T01:31:06.450Z,3.47
2022-08-14T01:33:52.156Z,4.03
2022-08-14T01:36:22.903Z,3.75
2022-08-14T01:38:56.814Z,3.80
2022-08-14T01:41:30.263Z,4.10
2022-08-14T01:44:06.242Z,3.95
2022-08-14T01:47:00.894Z,4.05
2022-08-14T01:49:35.524Z,4.03
2022-08-14T01:52:23.286Z,3.95
2022-08-14T01:54:58.331Z,3.75
2022-08-14T01:57:26.721Z,4.32
2022-08-14T02:00:19.250Z,4.10
2022-08-14T02:02:52.596Z,4.13
2022-08-14T02:05:19.914Z,3.97
2022-08-14T02:07:55.709Z,4.00
2022-08-14T02:10:46.032Z,4.03
2022-08-14T02:13:16.443Z,4.05
2022-08-14T02:15:44.355Z,4.32
2022-08-14T02:18:15.176Z,4.13
2022-08-14T02:20:43.285Z,4.00
2022-08-14T02:23:11.444Z,3.92
2022-08-14T02:25:39.352Z,3.80
2022-08-14T02:28:26.015Z,3.97
2022-08-14T02:30:53.813Z,3.88
2022-08-14T02:33:22.760Z,3.80
2022-08-14T02:35:57.881Z,3.90
2022-08-14T02:38:35.094Z,3.97
2022-08-14T02:41:08.890Z,3.63
2022-08-14T02:43:46.381Z,3.90
2022-08-14T02:46:20.501Z,4.28
2022-08-14T02:49:04.065Z,4.00
2022-08-14T02:51:34.890Z,3.78
2022-08-14T02:54:05.438Z,4.07
2022-08-14T02:57:15.335Z,4.38
2022-08-14T02:59:21.197Z,3.75
2022-08-14T03:01:51.114Z,4.40
2022-08-14T03:04:23.091Z,4.20
2022-08-14T03:06:57.857Z,4.10
2022-08-14T03:10:25.633Z,4.05
2022-08-14T03:12:32.372Z,3.67
2022-08-14T03:15:03.305Z,3.80
2022-08-14T03:17:31.836Z,4.03
2022-08-14T03:20:11.314Z,4.18
2022-08-14T03:22:41.993Z,4.38
2022-08-14T03:25:10.930Z,4.00
2022-08-14T03:27:48.032Z,4.05
2022-08-14T03:30:38.838Z,4.40
2022-08-14T03:33:10.759Z,4.47
2022-08-14T03:36:05.228Z,3.85
2022-08-14T03:39:15.245Z,4.35
2022-08-14T03:41:23.639Z,4.47
2022-08-14T03:45:19.985Z,4.00
2022-08-14T03:46:54.667Z,4.38
2022-08-14T03:49:28.292Z,4.15
2022-08-14T03:51:57.449Z,4.32
2022-08-14T03:54:26.224Z,4.60
2022-08-14T03:56:54.737Z,3.88
2022-08-14T03:59:21.969Z,4.25
2022-08-14T04:01:57.996Z,4.00
2022-08-14T04:04:33.590Z,3.90
2022-08-14T04:09:28.600Z,4.60
2022-08-14T04:11:58.142Z,4.22
2022-08-14T04:14:26.925Z,5.07
2022-08-14T04:16:54.896Z,4.30
2022-08-14T04:19:24.655Z,4.25
2022-08-14T04:22:03.724Z,4.28
2022-08-14T04:24:37.851Z,4.30
2022-08-14T04:27:10.507Z,4.55
2022-08-14T04:29:42.427Z,4.00
2022-08-14T04:33:01.074Z,4.38
2022-08-14T04:34:58.253Z,4.93
2022-08-14T04:37:45.326Z,4.10
2022-08-14T04:40:32.706Z,4.43
2022-08-14T04:43:21.069Z,4.22
2022-08-14T04:45:50.999Z,4.45
2022-08-14T04:48:36.748Z,4.53
2022-08-14T04:51:13.814Z,4.18
2022-08-14T04:53:45.739Z,4.60
2022-08-14T04:56:30.518Z,3.88
2022-08-14T04:59:10.694Z,3.97
2022-08-14T05:01:47.889Z,3.90
2022-08-14T05:04:20.486Z,3.50
2022-08-14T05:06:49.593Z,3.40
2022-08-14T05:09:21.603Z,3.80
2022-08-14T05:11:50.015Z,3.10
2022-08-14T05:14:45.296Z,3.35
2022-08-14T05:17:11.348Z,3.67
2022-08-14T05:19:44.815Z,3.25
2022-08-14T05:22:27.101Z,3.28
2022-08-14T05:24:54.742Z,3.47
2022-08-14T05:27:23.163Z,3.78
2022-08-14T05:29:53.606Z,3.40
2022-08-14T05:32:23.300Z,3.25
2022-08-14T05:34:57.743Z,3.67
2022-08-14T05:37:24.941Z,3.95
2022-08-14T05:39:54.462Z,3.97
2022-08-14T05:42:29.240Z,3.70
2022-08-14T05:44:59.971Z,4.05
2022-08-14T05:47:28.792Z,3.95
2022-08-14T05:50:02.339Z,3.63
2022-08-14T05:52:39.114Z,3.88
2022-08-14T05:55:11.473Z,4.47
2022-08-14T05:57:59.643Z,4.57
2022-08-14T06:00:37.098Z,4.15
2022-08-14T06:03:14.982Z,4.15
2022-08-14T06:05:46.338Z,4.43
2022-08-14T06:08:36.271Z,5.32
2022-08-14T06:11:10.044Z,4.63
2022-08-14T06:13:44.633Z,5.15
2022-08-14T06:16:14.617Z,4.55
2022-08-14T06:18:47.511Z,4.75
2022-08-14T06:21:16.021Z,5.20
2022-08-14T06:23:44.678Z,4.80
2022-08-14T06:26:16.384Z,5.05
2022-08-14T06:28:48.000Z,4.30
2022-08-14T06:31:20.628Z,5.00
2022-08-14T06:35:02.858Z,4.75
2022-08-14T06:36:36.850Z,4.90
2022-08-14T06:39:04.229Z,4.75
2022-08-14T06:41:58.289Z,4.78
2022-08-14T06:44:32.251Z,4.78
2022-08-14T06:47:01.220Z,4.50
2022-08-14T06:49:28.318Z,3.78
2022-08-14T06:51:57.652Z,4.10
2022-08-14T06:54:31.506Z,4.75
2022-08-14T06:56:59.393Z,4.35
2022-08-14T06:59:27.069Z,4.47
2022-08-14T07:02:13.115Z,4.47
2022-08-14T07:05:05.545Z,4.38
2022-08-14T07:07:41.401Z,4.10
2022-08-14T07:10:17.014Z,3.38
2022-08-14T07:13:01.015Z,3.10
2022-08-14T07:15:32.280Z,3.30
2022-08-14T07:18:00.396Z,3.78
2022-08-14T07:20:31.179Z,3.03
2022-08-14T07:25:38.159Z,3.03
2022-08-14T07:28:20.901Z,2.53
2022-08-14T07:30:51.000Z,2.80
2022-08-14T07:33:24.659Z,3.42
2022-08-14T07:35:59.475Z,3.63
2022-08-14T07:38:35.702Z,3.92
2022-08-14T07:41:11.865Z,3.88
2022-08-14T07:43:42.616Z,3.38
2022-08-14T07:46:11.375Z,3.83
2022-08-14T07:48:44.180Z,3.08
2022-08-14T07:51:15.168Z,3.15
2022-08-14T07:53:42.642Z,2.88
2022-08-14T07:56:21.618Z,3.00
2022-08-14T07:59:00.191Z,2.63
2022-08-14T08:01:31.133Z,2.72
2022-08-14T08:04:01.417Z,2.33
2022-08-14T08:06:31.014Z,2.72
2022-08-14T08:09:03.130Z,2.40
2022-08-14T08:11:37.499Z,2.67
2022-08-14T08:14:10.439Z,2.70
2022-08-14T08:16:43.773Z,2.60
2022-08-14T08:19:14.006Z,2.20
2022-08-14T08:21:43.784Z,2.90
2022-08-14T08:24:15.054Z,2.42
2022-08-14T08:26:46.782Z,2.47
2022-08-14T08:29:22.518Z,2.50
2022-08-14T08:31:55.890Z,2.40
2022-08-14T08:34:23.719Z,2.25
2022-08-14T08:36:52.697Z,2.35
2022-08-14T08:39:22.348Z,2.78
2022-08-14T08:41:53.789Z,2.35
2022-08-14T08:47:06.413Z,2.20
2022-08-14T08:49:52.981Z,2.35
2022-08-14T08:52:31.692Z,2.33
2022-08-14T08:55:01.216Z,2.65
2022-08-14T08:57:36.965Z,2.58
2022-08-14T09:00:24.532Z,2.35
2022-08-14T09:02:56.671Z,2.58
2022-08-14T09:05:24.477Z,2.42
2022-08-14T09:07:56.576Z,2.13
2022-08-14T09:10:27.112Z,1.85
2022-08-14T09:12:56.359Z,1.90
2022-08-14T09:15:24.233Z,2.50
2022-08-14T09:17:52.922Z,2.10
2022-08-14T09:20:26.407Z,2.63
2022-08-14T09:22:58.250Z,2.13
2022-08-14T09:25:59.842Z,2.00
2022-08-14T09:28:13.932Z,2.03
2022-08-14T09:30:55.006Z,2.15
2022-08-14T09:33:55.941Z,2.00
2022-08-14T09:36:48.397Z,2.03
2022-08-14T09:39:33.159Z,2.15
2022-08-14T09:42:33.489Z,2.10
2022-08-14T09:45:19.323Z,2.10
2022-08-14T09:47:55.025Z,1.83
2022-08-14T09:50:33.266Z,1.85
2022-08-14T09:53:05.027Z,1.90
2022-08-14T09:55:42.385Z,1.90
2022-08-14T09:58:19.734Z,2.00
2022-08-14T10:00:49.900Z,2.05
2022-08-14T10:03:34.343Z,1.90
2022-08-14T10:06:14.069Z,1.50
2022-08-14T10:08:44.437Z,1.63
2022-08-14T10:11:34.978Z,1.65
2022-08-14T10:14:37.217Z,1.60
2022-08-14T10:17:07.051Z,1.70
2022-08-14T10:19:46.978Z,1.70
2022-08-14T10:23:11.070Z,1.80
2022-08-14T10:25:12.376Z,1.63
2022-08-14T10:27:39.627Z,1.77
2022-08-14T10:30:22.157Z,1.50
2022-08-14T10:32:51.421Z,1.60
2022-08-14T10:35:23.018Z,1.60
2022-08-14T10:37:53.119Z,1.70
2022-08-14T10:40:37.677Z,1.70
2022-08-14T10:43:27.871Z,1.77
2022-08-14T10:47:36.878Z,1.77
2022-08-14T10:49:05.229Z,2.30
2022-08-14T10:51:41.949Z,2.03
2022-08-14T10:54:35.509Z,1.70
2022-08-14T10:57:15.360Z,1.83
2022-08-14T10:59:54.196Z,1.73
2022-08-14T11:02:45.028Z,1.85
2022-08-14T11:05:19.477Z,1.58
2022-08-14T11:07:56.527Z,1.70
2022-08-14T11:10:28.069Z,1.70
2022-08-14T11:12:58.693Z,1.70
2022-08-14T11:15:32.450Z,1.60
2022-08-14T11:18:01.140Z,1.60
2022-08-14T11:20:32.698Z,1.20
2022-08-14T11:23:01.844Z,1.65
2022-08-14T11:25:43.402Z,1.40
2022-08-14T11:28:19.390Z,1.55
2022-08-14T11:30:54.213Z,1.60
2022-08-14T11:33:29.844Z,1.65
2022-08-14T11:36:02.178Z,1.42
2022-08-14T11:38:41.144Z,1.83
2022-08-14T11:41:14.427Z,1.92
2022-08-14T11:43:58.229Z,1.40
2022-08-14T11:46:30.894Z,1.52
2022-08-14T11:49:05.798Z,1.58
2022-08-14T11:51:36.078Z,1.50
2022-08-14T11:54:08.262Z,1.40
2022-08-14T11:56:37.341Z,1.50
2022-08-14T11:59:07.209Z,1.38
2022-08-14T12:01:38.051Z,1.40
2022-08-14T12:04:31.727Z,1.40
2022-08-14T12:07:01.246Z,1.40
2022-08-14T12:09:29.998Z,1.40
2022-08-14T12:11:58.014Z,1.40
2022-08-14T12:14:34.856Z,1.58
2022-08-14T12:17:11.767Z,1.50
2022-08-14T12:19:56.574Z,1.33
2022-08-14T12:22:34.733Z,1.10
2022-08-14T12:25:05.952Z,1.60
2022-08-14T12:27:41.740Z,1.30
2022-08-14T12:30:14.884Z,1.33
2022-08-14T12:32:48.418Z,1.20
2022-08-14T12:35:15.638Z,1.35
2022-08-14T12:37:51.200Z,1.20
2022-08-14T12:40:25.099Z,1.20
2022-08-14T12:42:56.705Z,1.90
2022-08-14T12:45:33.688Z,1.38
2022-08-14T12:48:20.644Z,1.38
2022-08-14T12:50:53.574Z,1.50
2022-08-14T12:53:22.109Z,1.75
2022-08-14T12:56:17.982Z,2.08
2022-08-14T12:58:57.768Z,1.10
2022-08-14T13:01:30.924Z,1.40
2022-08-14T13:04:10.652Z,1.38
2022-08-14T13:06:39.649Z,1.40
2022-08-14T13:09:11.198Z,1.30
2022-08-14T13:11:47.297Z,1.25
2022-08-14T13:14:30.059Z,1.17
2022-08-14T13:16:58.717Z,1.30
2022-08-14T13:19:28.419Z,1.33
2022-08-14T13:21:58.700Z,1.30
2022-08-14T13:24:35.030Z,1.30
2022-08-14T13:27:05.077Z,2.72
2022-08-14T13:29:38.369Z,1.77
2022-08-14T13:32:09.565Z,1.63
2022-08-14T13:34:40.877Z,1.42
2022-08-14T13:37:08.842Z,1.60
2022-08-14T13:39:37.638Z,1.80
2022-08-14T13:42:13.143Z,1.73
2022-08-14T13:44:42.769Z,1.30
2022-08-14T13:47:15.265Z,1.48
2022-08-14T13:49:57.633Z,1.70
2022-08-14T13:52:52.614Z,1.45
2022-08-14T13:55:18.311Z,1.80
2022-08-14T13:57:57.705Z,1.10
2022-08-14T14:00:53.438Z,1.40
2022-08-14T14:03:24.323Z,1.20
2022-08-14T14:05:55.047Z,1.30
2022-08-14T14:08:45.651Z,1.50
2022-08-14T14:11:13.495Z,1.30
2022-08-14T14:13:45.688Z,1.33
2022-08-14T14:16:21.829Z,1.30
2022-08-14T14:18:56.786Z,6.53
2022-08-14T14:21:28.731Z,1.45
2022-08-14T14:23:56.966Z,1.30
2022-08-14T14:26:25.150Z,1.40
2022-08-14T14:28:57.183Z,1.38
2022-08-14T14:31:30.376Z,1.40
2022-08-14T14:34:01.133Z,1.42
2022-08-14T14:36:35.637Z,1.50
2022-08-14T14:39:08.053Z,1.48
2022-08-14T14:41:43.833Z,1.40
2022-08-14T14:44:13.577Z,1.50
2022-08-14T14:46:50.165Z,1.10
2022-08-14T14:49:21.760Z,1.27
2022-08-14T14:51:51.301Z,1.40
2022-08-14T14:54:30.986Z,1.30
2022-08-14T14:57:02.343Z,1.20
2022-08-14T14:59:33.567Z,1.58
2022-08-14T15:02:09.120Z,1.48
2022-08-14T15:04:38.735Z,1.65
2022-08-14T15:07:12.444Z,1.48
2022-08-14T15:09:41.093Z,1.55
2022-08-14T15:12:28.022Z,1.30
2022-08-14T15:15:08.150Z,1.40
2022-08-14T15:17:41.006Z,1.50
2022-08-14T15:20:17.364Z,1.63
2022-08-14T15:23:01.114Z,1.50
2022-08-14T15:25:52.969Z,1.13
2022-08-14T15:30:50.938Z,1.60
2022-08-14T15:34:33.845Z,1.52
2022-08-14T15:36:31.539Z,1.30
2022-08-14T15:38:59.506Z,1.40
2022-08-14T15:41:33.838Z,1.50
2022-08-14T15:44:25.417Z,1.52
2022-08-14T15:46:54.412Z,1.83
2022-08-14T15:49:24.502Z,1.88
2022-08-14T15:51:59.392Z,2.17
2022-08-14T15:54:31.188Z,1.80
2022-08-14T15:57:09.312Z,1.80
2022-08-14T15:59:58.505Z,1.90
2022-08-14T16:02:27.513Z,1.98
2022-08-14T16:04:55.765Z,1.90
2022-08-14T16:07:27.160Z,2.40
2022-08-14T16:10:25.341Z,2.00
2022-08-14T16:12:47.626Z,2.15
2022-08-14T16:15:22.608Z,1.92
2022-08-14T16:17:53.079Z,2.33
2022-08-14T16:20:41.765Z,2.00
2022-08-14T16:23:11.770Z,1.98
2022-08-14T16:25:42.764Z,2.10
2022-08-14T16:30:54.377Z,2.10
2022-08-14T16:33:56.694Z,2.10
2022-08-14T16:36:30.541Z,2.15
2022-08-14T16:39:00.137Z,2.20
2022-08-14T16:41:28.124Z,2.28
2022-08-14T16:44:22.055Z,2.13
2022-08-14T16:47:04.034Z,2.00
2022-08-14T16:50:03.147Z,1.85
2022-08-14T16:52:25.856Z,2.00
2022-08-14T16:55:11.122Z,1.85
2022-08-14T16:57:50.219Z,2.20
2022-08-14T17:23:30.621Z,1.80
2022-08-14T17:25:58.320Z,2.10
2022-08-14T17:31:16.916Z,1.98
2022-08-14T17:33:52.392Z,1.60
2022-08-14T17:36:23.180Z,1.80
2022-08-14T17:39:25.439Z,1.80
2022-08-14T17:42:13.424Z,1.85
2022-08-14T17:44:45.125Z,1.65
2022-08-14T17:47:14.797Z,1.83
2022-08-14T17:49:51.912Z,1.70
2022-08-14T17:52:35.933Z,1.90
2022-08-14T17:55:12.764Z,1.67
2022-08-14T17:57:59.206Z,2.00
2022-08-14T18:00:26.717Z,1.60
2022-08-14T18:02:58.008Z,1.60
2022-08-14T18:06:07.458Z,1.85
2022-08-14T18:08:33.167Z,1.95
2022-08-14T18:11:03.277Z,1.58
2022-08-14T18:13:49.924Z,1.70
2022-08-14T18:16:20.506Z,1.67
2022-08-14T18:18:51.630Z,1.75
2022-08-14T18:21:56.934Z,1.98
2022-08-14T18:24:19.921Z,1.80
2022-08-14T18:27:10.697Z,1.90
2022-08-14T18:29:55.011Z,1.70
2022-08-14T18:32:32.418Z,1.70
2022-08-14T18:35:10.906Z,1.52
2022-08-14T18:37:55.563Z,2.13
2022-08-14T18:40:35.179Z,1.73
2022-08-14T18:43:06.085Z,1.80
2022-08-14T18:46:02.290Z,2.00
2022-08-14T18:48:50.980Z,2.03
2022-08-14T18:51:45.143Z,2.05
2022-08-14T18:54:36.508Z,1.98
2022-08-14T18:57:05.574Z,2.10
2022-08-14T18:59:43.243Z,1.88
2022-08-14T19:02:30.628Z,1.80
2022-08-14T19:05:02.836Z,2.13
2022-08-14T19:07:33.902Z,1.90
2022-08-14T19:10:16.925Z,2.38
2022-08-14T19:12:53.676Z,1.90
2022-08-14T19:15:31.794Z,1.65
2022-08-14T19:18:18.561Z,1.92
2022-08-14T19:21:01.140Z,2.13
2022-08-14T19:23:42.380Z,2.10
2022-08-14T19:26:36.565Z,1.80
2022-08-14T19:29:35.958Z,1.83
2022-08-14T19:32:43.824Z,2.00
2022-08-14T19:35:49.135Z,1.98
2022-08-14T19:38:45.824Z,2.15
2022-08-14T19:41:20.934Z,1.88
2022-08-14T19:44:10.562Z,2.00
2022-08-14T19:47:01.860Z,2.15
2022-08-14T19:50:08.221Z,2.28
2022-08-14T19:52:39.569Z,2.45
2022-08-14T19:55:21.082Z,2.13
2022-08-14T19:58:05.946Z,2.13
2022-08-14T20:03:23.930Z,2.03
2022-08-14T20:06:05.807Z,2.50
2022-08-14T20:09:05.186Z,2.40
2022-08-14T20:12:02.005Z,2.35
2022-08-14T20:14:29.383Z,2.60
2022-08-14T20:17:05.493Z,2.20
2022-08-14T20:19:37.948Z,2.50
2022-08-14T20:22:37.167Z,2.60
2022-08-14T20:25:18.535Z,2.42
2022-08-14T20:27:59.523Z,2.20
2022-08-14T20:30:33.991Z,2.57
2022-08-14T20:33:11.148Z,3.13
2022-08-14T20:35:42.020Z,2.60
2022-08-14T20:38:30.423Z,2.30
2022-08-14T20:41:07.529Z,2.50
2022-08-14T20:43:58.532Z,2.40
2022-08-14T20:46:31.832Z,2.50
2022-08-14T20:49:05.325Z,2.53
2022-08-14T20:51:54.965Z,2.70
2022-08-14T20:54:36.318Z,2.58
2022-08-14T20:57:09.380Z,2.60
2022-08-14T20:59:46.612Z,2.83
2022-08-14T21:02:38.810Z,2.75
2022-08-14T21:05:20.782Z,2.47
2022-08-14T21:07:52.800Z,2.80
2022-08-14T21:10:35.588Z,2.72
2022-08-14T21:13:27.602Z,2.95
2022-08-14T21:16:33.725Z,2.85
2022-08-14T21:18:58.770Z,3.08
2022-08-14T21:21:41.777Z,2.65
2022-08-14T21:24:39.536Z,2.70
2022-08-14T21:27:12.763Z,2.70
2022-08-14T21:29:55.625Z,3.40
2022-08-14T21:32:47.375Z,3.20
2022-08-14T21:35:22.738Z,2.80
2022-08-14T21:37:54.039Z,2.88
2022-08-14T21:40:42.544Z,3.08
2022-08-14T21:43:22.363Z,2.90
2022-08-14T21:45:59.803Z,2.50
2022-08-14T21:48:30.089Z,2.88
2022-08-14T21:51:54.215Z,2.95
2022-08-14T21:54:04.231Z,3.03
2022-08-14T21:56:56.927Z,2.92
2022-08-14T21:59:32.126Z,2.72
2022-08-14T22:02:07.283Z,2.90
2022-08-14T22:04:40.385Z,2.85
2022-08-14T22:07:18.215Z,2.67
2022-08-14T22:09:55.289Z,3.38
2022-08-14T22:12:47.204Z,3.20
2022-08-14T22:15:17.600Z,2.88
2022-08-14T22:17:54.325Z,3.00
2022-08-14T22:20:23.103Z,3.45
2022-08-14T22:22:56.029Z,3.35
2022-08-14T22:25:33.397Z,2.83
2022-08-14T22:28:12.568Z,3.22
2022-08-14T22:30:41.751Z,2.95
2022-08-14T22:33:13.520Z,2.92
2022-08-14T22:35:45.256Z,3.42
2022-08-14T22:38:36.057Z,3.50
2022-08-14T22:41:26.178Z,2.85
2022-08-14T22:44:00.511Z,3.03
2022-08-14T22:46:32.782Z,3.53
2022-08-14T22:49:16.247Z,3.70
2022-08-14T22:51:51.929Z,3.08
2022-08-14T22:54:52.453Z,3.30
2022-08-14T22:57:11.239Z,3.60
2022-08-14T22:59:39.025Z,2.95
2022-08-14T23:02:30.602Z,3.60
2022-08-14T23:05:04.677Z,3.58
2022-08-14T23:08:56.236Z,3.72
2022-08-14T23:10:32.595Z,3.58
2022-08-14T23:13:05.598Z,3.22
2022-08-14T23:15:38.522Z,2.95
2022-08-14T23:18:16.995Z,2.90
2022-08-14T23:20:56.362Z,3.40
2022-08-14T23:23:24.625Z,3.20
2022-08-14T23:26:00.871Z,3.13
2022-08-14T23:28:57.098Z,3.25
2022-08-14T23:31:35.585Z,2.97
2022-08-14T23:34:20.995Z,3.33
2022-08-14T23:36:54.538Z,3.42
2022-08-14T23:39:31.653Z,3.10
2022-08-14T23:42:07.507Z,3.45
2022-08-14T23:44:40.015Z,3.45
2022-08-14T23:47:26.841Z,3.20
2022-08-14T23:50:04.061Z,3.25
2022-08-14T23:52:56.337Z,3.45
2022-08-14T23:55:33.383Z,3.45
2022-08-14T23:58:04.052Z,3.15
